Nachusa, IL (61057)

2:14 AM CDT on July 28, 2016 (GMT -0500)
3 mile creek | | Change Station

Elev 787 ft 41.80 °N, 89.42 °W | Updated 2 minutes ago

Fog
Fog
68.4 °F
Feels Like 68.4 °F
N
0.0
Wind Variable Wind from SE

Today
High -- | Low -- °F
--% Chance of Precip.
Yesterday
High -- | Low -- °F
Precip. -- in
Pressure 29.91 in
Visibility 0.2 miles
Clouds Few 8000 ft
Dew Point 66 °F
Humidity 93%
Rainfall 0.00 in
Snow Depth Not available.
5:48 AM 8:19 PM
Waning Crescent, 35% visible
SPECI KSQI 280705Z 12004KT 1/4SM FG FEW080 22/21 A2991 RMK AO2 RVRNO PNO $
Pressure 29.91 in
Visibility 0.2 miles
Clouds Few 8000 ft
Dew Point 66 °F
Humidity 93%
Rainfall 0.00 in
Snow Depth Not available.
5:48 AM 8:19 PM
Waning Crescent, 35% visible
SPECI KSQI 280705Z 12004KT 1/4SM FG FEW080 22/21 A2991 RMK AO2 RVRNO PNO $

10-Day Weather Forecast

Almanac

Astronomy

Jul. 28, 2016 Rise Set
Actual Time
Civil Twilight
Nautical Twilight
Astronomical Twilight
Moon
Length of Visible Light
Length of Day
Tomorrow will be .
, % of the Moon is Illuminated

Today's Extremes

State Highs State Lows

Community

WunderPhotos

Upload Photos

1,928,070 photos uploaded!

WunderBlog® & News

Nearby

Air Quality

  Air Quality AQ Index Pollutant
Not available.

Snow Depth

Station Depth Elevation

Earthquake Activity

City Distance Mag. Time & Date
Minimum magnitude displayed is 2.5.

Coastal Water Temperatures

Place Temperature

Stations

Nearby Weather Stations

Station Location Temp. Windchill Dew Point Humidity Wind Precip. Elev Updated Type
                   

Watches & Warnings

There are currently no watches in effect.